Albany, Minnesota
Current Conditions -  °F | °C
As of 7:52 AM on Wednesday 26 Nov 2014 (Local Time) from KD39 Reporting Station
Light Snow Light Snow  
Wind Chill:   Ceiling: 4100
Heat Index: 19°   Visibility: 5mi
Dew Point: 16°   Wind: 10mph
Humidity: 87%   Direction: 360°N
Pressure: 30.14"   Gusts: NA
Location:  45.63°N, 94.57°W
Report Text: KD39 261352Z AUTO 36009KT 5SM -SN OVC041 M07/M09 A3014 RMK AO2 T10721091
Loading
Personal Weather Stations






























Interactive Weather Map New forecast layout! Learn more

10-Day Weather Forecast

Advertisements
Track Severe Weather on mobile